Time;durP1;ratioP1;P1;durP2;ratioP2;P2;SDS_P1;SDS_P2;PMS_P1;PMS_P2;Temp;Humidity;BMP_temperature;BMP_pressure;BME280_temperature;BME280_humidity;BME280_pressure;Samples;Min_cycle;Max_cycle;Signal;HPM_P1;HPM_P2
2022/04/29 00:01:24;;;;;;;18.77;12.68;;;;;;;;;;4892643;29;20037;-76
2022/04/29 00:03:53;;;;;;;16.45;12.80;;;;;;;;;;4892512;29;20549;-76
2022/04/29 00:06:19;;;;;;;17.02;12.70;;;;;;;;;;4892461;29;20036;-78
2022/04/29 00:08:45;;;;;;;15.35;10.98;;;;;;;;;;4892573;29;20024;-78
2022/04/29 00:11:11;;;;;;;15.95;10.68;;;;;;;;;;4878249;29;20071;-77
2022/04/29 00:13:38;;;;;;;19.10;12.18;;;;;;;;;;4878120;29;20469;-76
2022/04/29 00:16:05;;;;;;;17.20;13.10;;;;;;;;;;4877874;29;20096;-77
2022/04/29 00:18:31;;;;;;;14.93;12.00;;;;;;;;;;4878099;29;20073;-77
2022/04/29 00:20:57;;;;;;;17.00;13.13;;;;;;;;;;4878214;29;20029;-76
2022/04/29 00:23:23;;;;;;;14.60;10.13;;;;;;;;;;4878320;29;20025;-77
2022/04/29 00:25:49;;;;;;;16.02;11.40;;;;;;;;;;4878187;29;20104;-76
2022/04/29 00:28:15;;;;;;;15.38;12.57;;;;;;;;;;4878009;29;20025;-77
2022/04/29 00:30:41;;;;;;;17.88;12.82;;;;;;;;;;4877909;29;20100;-77
2022/04/29 00:33:07;;;;;;;18.42;13.48;;;;;;;;;;4892276;29;20033;-76
2022/04/29 00:35:34;;;;;;;16.42;12.35;;;;;;;;;;4877770;29;20025;-77
2022/04/29 00:38:00;;;;;;;16.27;12.00;;;;;;;;;;4892343;29;20461;-76
2022/04/29 00:40:30;;;;;;;16.88;12.57;;;;;;;;;;4877736;29;20076;-76
2022/04/29 00:42:57;;;;;;;19.13;12.18;;;;;;;;;;4877648;29;20033;-76
2022/04/29 00:45:23;;;;;;;18.52;13.02;;;;;;;;;;4878165;29;20068;-76
2022/04/29 00:47:50;;;;;;;17.80;12.18;;;;;;;;;;4892274;29;20044;-76
2022/04/29 00:50:17;;;;;;;16.60;11.85;;;;;;;;;;4877593;29;20400;-76
2022/04/29 00:52:46;;;;;;;17.38;13.18;;;;;;;;;;4877987;29;20029;-76
2022/04/29 00:55:13;;;;;;;18.33;13.18;;;;;;;;;;4892381;29;20179;-76
2022/04/29 00:57:45;;;;;;;17.65;13.38;;;;;;;;;;4877419;29;20021;-76
2022/04/29 01:00:14;;;;;;;19.23;13.07;;;;;;;;;;4877572;29;20025;-76
2022/04/29 01:02:41;;;;;;;18.70;13.38;;;;;;;;;;4877848;29;20077;-77
2022/04/29 01:05:12;;;;;;;16.38;12.23;;;;;;;;;;4877817;29;20021;-78
2022/04/29 01:07:38;;;;;;;17.30;13.32;;;;;;;;;;4892331;29;20109;-76
2022/04/29 01:10:06;;;;;;;17.30;12.82;;;;;;;;;;4892144;29;20036;-76
2022/04/29 01:12:33;;;;;;;18.10;13.45;;;;;;;;;;4880666;29;20032;-77
2022/04/29 01:15:03;;;;;;;17.67;12.38;;;;;;;;;;4881300;29;20057;-78
2022/04/29 01:17:30;;;;;;;17.42;12.75;;;;;;;;;;4880989;29;20046;-76
2022/04/29 01:19:56;;;;;;;19.17;14.02;;;;;;;;;;4880948;29;20025;-76
2022/04/29 01:22:22;;;;;;;17.33;12.50;;;;;;;;;;4895448;29;20104;-77
2022/04/29 01:24:50;;;;;;;17.83;14.13;;;;;;;;;;4881020;29;20093;-77
2022/04/29 01:27:16;;;;;;;18.00;12.45;;;;;;;;;;4880814;29;20051;-77
2022/04/29 01:29:43;;;;;;;15.27;11.60;;;;;;;;;;4880864;29;20029;-76
2022/04/29 01:32:09;;;;;;;18.02;13.18;;;;;;;;;;4895225;29;20022;-76
2022/04/29 01:34:36;;;;;;;16.00;13.13;;;;;;;;;;4880905;29;20048;-76
2022/04/29 01:37:02;;;;;;;14.93;11.75;;;;;;;;;;4881088;29;20036;-77
2022/04/29 01:39:28;;;;;;;15.82;11.32;;;;;;;;;;4880840;29;20124;-76
2022/04/29 01:41:54;;;;;;;20.45;11.35;;;;;;;;;;4880801;29;20057;-75
2022/04/29 01:44:20;;;;;;;16.58;11.10;;;;;;;;;;4880525;29;20021;-76
2022/04/29 01:46:46;;;;;;;16.08;11.20;;;;;;;;;;4895082;29;20080;-77
2022/04/29 01:49:13;;;;;;;14.30;10.35;;;;;;;;;;4880527;29;20021;-75
2022/04/29 01:51:39;;;;;;;16.27;11.63;;;;;;;;;;4880206;29;20142;-76
2022/04/29 01:54:10;;;;;;;14.93;11.60;;;;;;;;;;4880219;29;20029;-75
2022/04/29 01:56:36;;;;;;;18.83;12.02;;;;;;;;;;4880208;29;20069;-76
2022/04/29 01:59:04;;;;;;;17.00;12.70;;;;;;;;;;4880042;29;20033;-75
2022/04/29 02:01:30;;;;;;;15.80;11.32;;;;;;;;;;4880087;29;20580;-75
2022/04/29 02:03:58;;;;;;;15.90;10.98;;;;;;;;;;4880474;29;20093;-76
2022/04/29 02:06:26;;;;;;;16.05;11.82;;;;;;;;;;4894633;29;20503;-77
2022/04/29 02:08:52;;;;;;;16.35;11.65;;;;;;;;;;4879960;29;20100;-76
2022/04/29 02:11:18;;;;;;;17.10;11.90;;;;;;;;;;4880259;29;20034;-76
2022/04/29 02:13:47;;;;;;;16.83;11.88;;;;;;;;;;4894508;29;20469;-76
2022/04/29 02:16:14;;;;;;;16.13;11.20;;;;;;;;;;4880104;29;20025;-76
2022/04/29 02:18:40;;;;;;;18.42;10.98;;;;;;;;;;4894323;29;20025;-76
2022/04/29 02:21:07;;;;;;;16.05;12.70;;;;;;;;;;4880098;29;20033;-77
2022/04/29 02:23:33;;;;;;;16.60;10.48;;;;;;;;;;4879486;29;20142;-75
2022/04/29 02:26:00;;;;;;;14.45;10.82;;;;;;;;;;4879713;29;20108;-76
2022/04/29 02:28:27;;;;;;;16.23;11.52;;;;;;;;;;4878589;29;20457;-76
2022/04/29 02:30:55;;;;;;;15.05;10.15;;;;;;;;;;4879796;29;20029;-76
2022/04/29 02:33:21;;;;;;;14.93;11.15;;;;;;;;;;4878561;29;20021;-75
2022/04/29 02:35:47;;;;;;;14.80;11.15;;;;;;;;;;4879798;29;20029;-76
2022/04/29 02:38:13;;;;;;;15.25;11.98;;;;;;;;;;4879780;29;20105;-75
2022/04/29 02:40:39;;;;;;;13.55;8.18;;;;;;;;;;4879561;29;20049;-76
2022/04/29 02:43:05;;;;;;;13.35;9.93;;;;;;;;;;4879363;29;20028;-75
2022/04/29 02:45:32;;;;;;;15.05;10.88;;;;;;;;;;4879407;29;20025;-76
2022/04/29 02:47:58;;;;;;;16.90;10.02;;;;;;;;;;4878426;29;20025;-76
2022/04/29 02:50:25;;;;;;;15.82;11.32;;;;;;;;;;4879463;29;20037;-76
2022/04/29 02:52:51;;;;;;;13.40;9.98;;;;;;;;;;4878295;29;20036;-75
2022/04/29 02:55:17;;;;;;;13.88;10.43;;;;;;;;;;4879171;29;20027;-76
2022/04/29 02:57:43;;;;;;;16.90;10.55;;;;;;;;;;4879484;29;20072;-76
2022/04/29 03:00:10;;;;;;;12.65;10.02;;;;;;;;;;4879081;29;20028;-77
2022/04/29 03:02:36;;;;;;;16.65;10.40;;;;;;;;;;4879348;29;20060;-77
2022/04/29 03:05:04;;;;;;;11.43;9.57;;;;;;;;;;4879382;29;20082;-76
2022/04/29 03:07:30;;;;;;;17.10;11.23;;;;;;;;;;4878895;29;20052;-76
2022/04/29 03:09:56;;;;;;;15.43;10.88;;;;;;;;;;4877967;29;20021;-75
2022/04/29 03:12:23;;;;;;;14.52;10.98;;;;;;;;;;4878824;29;20029;-76
2022/04/29 03:14:49;;;;;;;14.40;9.57;;;;;;;;;;4879195;29;20027;-76
2022/04/29 03:20:00;;;;;;;13.95;9.02;;;;;;;;;;4879852;29;20048;-76
2022/04/29 03:22:29;;;;;;;15.55;10.27;;;;;;;;;;4879774;29;20330;-77
2022/04/29 03:24:55;;;;;;;14.77;9.52;;;;;;;;;;4880018;29;20055;-76
2022/04/29 03:27:21;;;;;;;12.18;9.32;;;;;;;;;;4893714;29;20025;-76
2022/04/29 03:29:47;;;;;;;10.32;8.90;;;;;;;;;;4879643;29;20030;-76
2022/04/29 03:32:13;;;;;;;10.52;8.82;;;;;;;;;;4879694;29;20029;-76
2022/04/29 03:34:39;;;;;;;11.60;8.93;;;;;;;;;;4878865;29;20033;-77
2022/04/29 03:37:06;;;;;;;11.73;8.75;;;;;;;;;;4893556;29;20040;-77
2022/04/29 03:39:32;;;;;;;13.73;7.70;;;;;;;;;;4879154;29;20029;-76
2022/04/29 03:41:58;;;;;;;11.40;8.98;;;;;;;;;;4879695;29;20133;-75
2022/04/29 03:44:24;;;;;;;14.93;9.93;;;;;;;;;;4893762;29;20449;-76
2022/04/29 03:46:50;;;;;;;13.52;8.63;;;;;;;;;;4893550;29;20029;-76
2022/04/29 03:52:00;;;;;;;22.23;14.88;;;;;;;;;;4878820;29;20060;-76
2022/04/29 03:54:27;;;;;;;15.70;10.30;;;;;;;;;;4878858;29;20104;-75
2022/04/29 03:56:53;;;;;;;30.90;14.45;;;;;;;;;;4878865;29;20033;-76
2022/04/29 03:59:19;;;;;;;21.45;11.68;;;;;;;;;;4879505;29;20033;-75
2022/04/29 04:01:45;;;;;;;17.55;10.02;;;;;;;;;;4892670;29;20460;-76
2022/04/29 04:04:12;;;;;;;26.80;13.38;;;;;;;;;;4892877;29;20527;-75
2022/04/29 04:06:50;;;;;;;21.55;12.57;;;;;;;;;;4878244;29;20025;-76
2022/04/29 04:09:16;;;;;;;40.15;16.73;;;;;;;;;;4878609;29;20108;-79
2022/04/29 04:11:42;;;;;;;19.85;12.35;;;;;;;;;;4878278;29;20080;-76
2022/04/29 04:14:09;;;;;;;27.50;15.10;;;;;;;;;;4892740;29;20059;-75
2022/04/29 04:16:35;;;;;;;15.40;9.50;;;;;;;;;;4892924;29;20036;-76
2022/04/29 04:19:02;;;;;;;10.35;8.45;;;;;;;;;;4877618;29;20044;-76
2022/04/29 04:21:28;;;;;;;9.38;7.28;;;;;;;;;;4891995;29;20044;-75
2022/04/29 04:23:54;;;;;;;13.05;8.30;;;;;;;;;;4875123;29;20503;-75
2022/04/29 04:26:21;;;;;;;14.50;9.60;;;;;;;;;;4874853;29;20025;-76
2022/04/29 04:28:47;;;;;;;15.82;9.35;;;;;;;;;;4892187;29;20032;-75
2022/04/29 04:31:13;;;;;;;12.60;8.88;;;;;;;;;;4874172;29;20041;-75
2022/04/29 04:33:39;;;;;;;12.30;8.25;;;;;;;;;;4874263;29;20084;-76
2022/04/29 04:36:05;;;;;;;15.27;9.73;;;;;;;;;;4877727;29;20033;-76
2022/04/29 04:38:31;;;;;;;13.35;9.52;;;;;;;;;;4874406;29;20025;-76
2022/04/29 04:40:58;;;;;;;15.13;10.13;;;;;;;;;;4885818;29;20061;-76
2022/04/29 04:43:24;;;;;;;11.85;9.30;;;;;;;;;;4887694;29;20503;-77
2022/04/29 04:45:51;;;;;;;12.88;9.35;;;;;;;;;;4876463;29;20032;-76
2022/04/29 04:48:18;;;;;;;13.60;9.15;;;;;;;;;;4880686;29;20028;-76
2022/04/29 04:50:44;;;;;;;13.27;8.82;;;;;;;;;;4880414;29;20519;-75
2022/04/29 04:53:10;;;;;;;12.77;9.55;;;;;;;;;;4869509;29;20430;-76
2022/04/29 04:55:37;;;;;;;11.55;9.55;;;;;;;;;;4862679;29;20026;-75
2022/04/29 04:58:03;;;;;;;16.05;11.82;;;;;;;;;;4878829;29;20032;-77
2022/04/29 05:00:29;;;;;;;13.20;10.30;;;;;;;;;;4881471;29;20021;-75
2022/04/29 05:02:55;;;;;;;13.20;10.43;;;;;;;;;;4881348;29;20032;-76
2022/04/29 05:05:21;;;;;;;17.48;11.70;;;;;;;;;;4895721;29;20025;-76
2022/04/29 05:07:47;;;;;;;22.00;14.60;;;;;;;;;;4881333;29;20112;-76
2022/04/29 05:10:14;;;;;;;16.77;12.15;;;;;;;;;;4881196;29;20075;-77
2022/04/29 05:12:41;;;;;;;14.70;11.52;;;;;;;;;;4894604;29;20477;-78
2022/04/29 05:15:08;;;;;;;17.80;11.95;;;;;;;;;;4880823;29;20029;-76
2022/04/29 05:17:34;;;;;;;13.57;10.32;;;;;;;;;;4881313;29;20029;-78
2022/04/29 05:20:00;;;;;;;13.57;10.75;;;;;;;;;;4880805;29;20477;-75
2022/04/29 05:22:29;;;;;;;16.58;10.25;;;;;;;;;;4880198;29;20037;-75
2022/04/29 05:24:55;;;;;;;14.70;9.63;;;;;;;;;;4875817;29;20065;-76
2022/04/29 05:27:21;;;;;;;13.65;11.20;;;;;;;;;;4878134;29;20056;-76
2022/04/29 05:29:47;;;;;;;19.48;13.65;;;;;;;;;;4877587;29;20028;-76
2022/04/29 05:32:14;;;;;;;13.43;9.88;;;;;;;;;;4891021;29;20044;-75
2022/04/29 05:34:40;;;;;;;12.80;9.93;;;;;;;;;;4866918;29;20030;-75
2022/04/29 05:37:06;;;;;;;16.17;12.40;;;;;;;;;;4878566;29;20028;-76
2022/04/29 05:42:18;;;;;;;13.60;10.00;;;;;;;;;;4875025;29;20052;-76
2022/04/29 05:44:44;;;;;;;14.82;11.40;;;;;;;;;;4874407;29;20915;-76
2022/04/29 05:47:11;;;;;;;13.45;10.77;;;;;;;;;;4874648;29;20029;-75
2022/04/29 05:49:37;;;;;;;13.75;9.98;;;;;;;;;;4894187;29;20025;-77
2022/04/29 05:52:04;;;;;;;16.02;11.40;;;;;;;;;;4880172;29;20045;-77
2022/04/29 05:54:31;;;;;;;18.80;12.85;;;;;;;;;;4880427;29;20025;-77
2022/04/29 05:56:57;;;;;;;12.38;9.63;;;;;;;;;;4878582;29;20506;-76
2022/04/29 05:59:23;;;;;;;16.08;10.40;;;;;;;;;;4879675;29;20029;-76
2022/04/29 06:01:49;;;;;;;16.17;11.25;;;;;;;;;;4879092;29;20037;-75
2022/04/29 06:04:16;;;;;;;14.63;10.48;;;;;;;;;;4879947;29;20060;-76
2022/04/29 06:06:42;;;;;;;8.95;7.18;;;;;;;;;;4894549;29;20108;-76
2022/04/29 06:09:08;;;;;;;16.08;11.95;;;;;;;;;;4894557;29;20071;-77
2022/04/29 06:11:34;;;;;;;12.93;9.32;;;;;;;;;;4879754;29;20127;-76
2022/04/29 06:14:00;;;;;;;10.85;8.77;;;;;;;;;;4880583;29;20153;-76
2022/04/29 06:16:26;;;;;;;10.00;7.65;;;;;;;;;;4878595;29;20021;-76
2022/04/29 06:18:52;;;;;;;16.45;10.05;;;;;;;;;;4880326;29;20059;-76
2022/04/29 06:21:19;;;;;;;9.73;7.85;;;;;;;;;;4879910;29;20085;-77
2022/04/29 06:23:45;;;;;;;10.75;8.27;;;;;;;;;;4879933;29;20048;-76
2022/04/29 06:26:12;;;;;;;13.02;8.40;;;;;;;;;;4894156;29;20093;-76
2022/04/29 06:28:39;;;;;;;8.75;6.78;;;;;;;;;;4881276;29;20032;-76
2022/04/29 06:31:05;;;;;;;11.35;8.55;;;;;;;;;;4880250;29;20043;-75
2022/04/29 06:33:32;;;;;;;11.57;8.07;;;;;;;;;;4879440;29;20029;-76
2022/04/29 06:35:58;;;;;;;9.85;7.05;;;;;;;;;;4894002;29;20029;-75
2022/04/29 06:38:24;;;;;;;7.85;5.43;;;;;;;;;;4893654;29;20032;-76
2022/04/29 06:40:50;;;;;;;8.75;6.80;;;;;;;;;;4879719;29;20096;-77
2022/04/29 06:43:17;;;;;;;4.43;2.95;;;;;;;;;;4879203;29;20389;-75
2022/04/29 06:45:43;;;;;;;8.55;5.72;;;;;;;;;;4893989;29;20021;-76
2022/04/29 06:48:09;;;;;;;8.13;6.82;;;;;;;;;;4893773;29;20022;-76
2022/04/29 06:50:35;;;;;;;8.30;6.53;;;;;;;;;;4879354;29;20037;-75
2022/04/29 06:53:01;;;;;;;5.85;4.80;;;;;;;;;;4879430;29;20036;-79
2022/04/29 06:55:28;;;;;;;9.43;7.25;;;;;;;;;;4879435;29;20086;-78
2022/04/29 06:57:54;;;;;;;12.18;7.78;;;;;;;;;;4879377;29;20029;-77
2022/04/29 07:00:20;;;;;;;6.75;4.88;;;;;;;;;;4879556;29;20029;-77
2022/04/29 07:02:46;;;;;;;6.75;4.72;;;;;;;;;;4893605;29;20021;-78
2022/04/29 07:05:13;;;;;;;7.72;5.60;;;;;;;;;;4879147;29;20021;-77
2022/04/29 07:07:39;;;;;;;7.57;4.85;;;;;;;;;;4878991;29;20099;-77
2022/04/29 07:10:05;;;;;;;5.88;4.22;;;;;;;;;;4879115;29;20017;-77
2022/04/29 07:12:38;;;;;;;7.60;4.45;;;;;;;;;;4879046;29;20140;-77
2022/04/29 07:15:05;;;;;;;9.45;7.07;;;;;;;;;;4893282;29;20142;-78
2022/04/29 07:17:31;;;;;;;5.15;3.95;;;;;;;;;;4878927;29;20033;-77
2022/04/29 07:19:58;;;;;;;7.68;4.03;;;;;;;;;;4893388;29;20053;-77
2022/04/29 07:22:24;;;;;;;8.10;5.05;;;;;;;;;;4878973;29;20025;-77
2022/04/29 07:24:50;;;;;;;7.88;5.57;;;;;;;;;;4878836;29;20108;-79
2022/04/29 07:27:16;;;;;;;5.85;4.68;;;;;;;;;;4878839;29;20029;-78
2022/04/29 07:29:42;;;;;;;6.47;5.18;;;;;;;;;;4878642;29;20567;-78
2022/04/29 07:32:09;;;;;;;6.60;3.75;;;;;;;;;;4892865;29;20401;-78
2022/04/29 07:42:49;;;;;;;7.22;5.20;;;;;;;;;;4878206;29;20051;-77
2022/04/29 07:45:15;;;;;;;6.10;4.25;;;;;;;;;;4878030;29;20021;-77
2022/04/29 07:47:41;;;;;;;6.32;4.20;;;;;;;;;;4878193;29;20028;-77
2022/04/29 07:50:08;;;;;;;8.98;4.95;;;;;;;;;;4878065;29;20049;-78
2022/04/29 07:52:34;;;;;;;7.82;4.68;;;;;;;;;;4878354;29;20068;-78
2022/04/29 07:55:01;;;;;;;6.32;4.68;;;;;;;;;;4878286;29;20080;-76
2022/04/29 07:57:27;;;;;;;6.25;3.97;;;;;;;;;;4878190;29;20022;-79
2022/04/29 07:59:53;;;;;;;6.72;3.95;;;;;;;;;;4892561;29;20032;-77
2022/04/29 08:02:19;;;;;;;5.32;3.13;;;;;;;;;;4878170;29;20118;-78
2022/04/29 08:04:45;;;;;;;5.22;3.72;;;;;;;;;;4878015;29;20143;-78
2022/04/29 08:07:12;;;;;;;7.47;4.28;;;;;;;;;;4877801;29;20028;-77
2022/04/29 08:09:38;;;;;;;5.15;3.53;;;;;;;;;;4879038;29;20105;-77
2022/04/29 08:12:05;;;;;;;5.82;4.25;;;;;;;;;;4892292;29;20037;-77
2022/04/29 08:14:31;;;;;;;7.03;3.72;;;;;;;;;;4878130;29;20029;-77
2022/04/29 08:16:58;;;;;;;7.38;4.55;;;;;;;;;;4877730;29;20073;-79
2022/04/29 08:19:24;;;;;;;5.95;3.92;;;;;;;;;;4877636;29;20396;-79
2022/04/29 08:21:50;;;;;;;5.72;4.30;;;;;;;;;;4892121;29;20044;-78
2022/04/29 08:24:16;;;;;;;5.00;3.50;;;;;;;;;;4878296;29;20108;-78
2022/04/29 08:26:42;;;;;;;4.72;3.88;;;;;;;;;;4892236;29;20433;-78
2022/04/29 08:29:10;;;;;;;5.40;3.65;;;;;;;;;;4877676;29;20116;-77
2022/04/29 08:31:36;;;;;;;5.72;4.00;;;;;;;;;;4877084;29;20040;-78
2022/04/29 08:34:04;;;;;;;6.90;5.63;;;;;;;;;;4877908;29;20097;-78
2022/04/29 08:36:30;;;;;;;6.95;4.05;;;;;;;;;;4878077;29;20082;-77
2022/04/29 08:38:56;;;;;;;53.78;21.48;;;;;;;;;;4892166;29;20517;-77
2022/04/29 08:41:23;;;;;;;4.88;2.00;;;;;;;;;;4877732;29;20061;-79
2022/04/29 08:43:49;;;;;;;5.30;3.50;;;;;;;;;;4877740;29;20025;-76
2022/04/29 08:46:16;;;;;;;4.68;3.15;;;;;;;;;;4877715;29;20048;-77
2022/04/29 08:48:43;;;;;;;4.85;3.60;;;;;;;;;;4877787;29;20021;-77
2022/04/29 08:51:09;;;;;;;4.68;3.60;;;;;;;;;;4891900;29;20072;-76
2022/04/29 08:53:36;;;;;;;6.13;4.28;;;;;;;;;;4877419;29;20021;-77
2022/04/29 08:58:47;;;;;;;6.30;4.30;;;;;;;;;;4877346;29;20096;-77
2022/04/29 09:01:20;;;;;;;7.70;4.18;;;;;;;;;;4891871;29;20025;-77
2022/04/29 09:03:46;;;;;;;5.32;3.83;;;;;;;;;;4877769;29;20496;-77
2022/04/29 09:06:14;;;;;;;15.45;6.45;;;;;;;;;;4877562;29;20044;-77
2022/04/29 09:08:40;;;;;;;6.75;3.97;;;;;;;;;;4891980;29;20362;-78
2022/04/29 09:11:06;;;;;;;6.18;3.50;;;;;;;;;;4892048;29;20523;-76
2022/04/29 09:13:35;;;;;;;7.13;4.25;;;;;;;;;;4877313;29;20036;-76
2022/04/29 09:16:11;;;;;;;5.50;3.22;;;;;;;;;;4877363;29;20032;-77
2022/04/29 09:18:39;;;;;;;6.05;4.40;;;;;;;;;;4876688;29;20064;-76
2022/04/29 09:21:07;;;;;;;6.18;4.60;;;;;;;;;;4893650;29;20028;-77
2022/04/29 09:23:35;;;;;;;6.75;4.82;;;;;;;;;;4877381;29;20021;-76
2022/04/29 09:26:05;;;;;;;6.60;4.20;;;;;;;;;;4877483;29;20032;-77
2022/04/29 09:28:31;;;;;;;7.45;3.47;;;;;;;;;;4891410;29;20117;-76
2022/04/29 09:30:57;;;;;;;10.93;5.60;;;;;;;;;;4877363;29;20044;-75
2022/04/29 09:33:25;;;;;;;6.43;4.55;;;;;;;;;;4894151;29;20095;-76
2022/04/29 09:35:51;;;;;;;6.18;3.50;;;;;;;;;;4880645;29;20029;-75
2022/04/29 09:41:04;;;;;;;6.22;4.50;;;;;;;;;;4880536;29;20504;-79
2022/04/29 09:43:34;;;;;;;6.97;4.65;;;;;;;;;;4894599;29;20438;-76
2022/04/29 09:46:09;;;;;;;5.65;3.92;;;;;;;;;;4880896;29;20116;-78
2022/04/29 09:48:54;;;;;;;6.57;4.70;;;;;;;;;;4880577;29;20151;-79
2022/04/29 09:51:39;;;;;;;5.47;3.95;;;;;;;;;;4880466;29;20040;-77
2022/04/29 09:54:12;;;;;;;8.02;3.05;;;;;;;;;;4894863;29;20056;-77
2022/04/29 09:56:38;;;;;;;5.57;4.15;;;;;;;;;;4894512;29;20040;-76
2022/04/29 09:59:05;;;;;;;5.32;3.17;;;;;;;;;;4880447;29;20104;-76
2022/04/29 10:01:31;;;;;;;6.28;3.90;;;;;;;;;;4894727;29;20357;-76
2022/04/29 10:03:59;;;;;;;5.30;3.58;;;;;;;;;;4894677;29;20393;-77
2022/04/29 10:06:26;;;;;;;5.18;3.63;;;;;;;;;;4894541;29;20025;-75
2022/04/29 10:08:52;;;;;;;6.38;4.13;;;;;;;;;;4894450;29;20025;-76
2022/04/29 10:11:23;;;;;;;6.25;4.53;;;;;;;;;;4880062;29;20127;-77
2022/04/29 10:13:51;;;;;;;5.53;4.32;;;;;;;;;;4880391;29;20021;-76
2022/04/29 10:16:18;;;;;;;7.97;5.35;;;;;;;;;;4894237;29;20032;-76
2022/04/29 10:21:38;;;;;;;6.05;3.10;;;;;;;;;;4879637;29;20549;-76
2022/04/29 10:24:04;;;;;;;5.20;4.15;;;;;;;;;;4879846;29;20025;-76
2022/04/29 10:26:31;;;;;;;5.82;4.28;;;;;;;;;;4879850;29;20029;-74
2022/04/29 10:28:57;;;;;;;6.80;4.80;;;;;;;;;;4880076;29;20040;-77
2022/04/29 10:31:23;;;;;;;9.10;5.75;;;;;;;;;;4893745;29;20447;-76
2022/04/29 10:33:50;;;;;;;6.35;3.88;;;;;;;;;;4878333;29;20017;-76
2022/04/29 10:36:17;;;;;;;6.80;4.55;;;;;;;;;;4879610;29;20422;-76
2022/04/29 10:38:46;;;;;;;9.07;4.65;;;;;;;;;;4879631;29;20032;-77
2022/04/29 10:41:18;;;;;;;3.72;2.90;;;;;;;;;;4878391;29;20171;-77
2022/04/29 10:43:50;;;;;;;3.05;2.10;;;;;;;;;;4879192;29;20093;-77
2022/04/29 10:46:20;;;;;;;11.23;4.60;;;;;;;;;;4893929;29;20025;-78
2022/04/29 10:48:46;;;;;;;5.10;3.65;;;;;;;;;;4879313;29;20043;-77
2022/04/29 10:51:15;;;;;;;7.43;5.32;;;;;;;;;;4879203;29;20528;-77
2022/04/29 10:53:42;;;;;;;4.65;2.88;;;;;;;;;;4893508;29;20089;-78
2022/04/29 10:56:27;;;;;;;5.90;4.57;;;;;;;;;;4879379;29;20080;-77
2022/04/29 10:58:54;;;;;;;8.80;5.55;;;;;;;;;;4893492;29;20082;-76
2022/04/29 11:01:27;;;;;;;10.82;5.07;;;;;;;;;;4893523;29;20077;-76
2022/04/29 11:03:54;;;;;;;9.52;5.40;;;;;;;;;;4878676;29;20434;-76
2022/04/29 11:06:20;;;;;;;8.88;5.50;;;;;;;;;;4878869;29;20029;-77
2022/04/29 11:08:46;;;;;;;6.65;5.20;;;;;;;;;;4878651;29;20029;-77
2022/04/29 11:11:13;;;;;;;7.80;5.03;;;;;;;;;;4878902;29;20089;-77
2022/04/29 11:13:43;;;;;;;8.88;4.43;;;;;;;;;;4878892;29;20108;-77
2022/04/29 11:16:16;;;;;;;8.35;5.13;;;;;;;;;;4879157;29;20025;-76
2022/04/29 11:18:43;;;;;;;7.88;4.82;;;;;;;;;;4878778;29;20051;-75
2022/04/29 11:26:47;;;;;;;9.90;4.95;;;;;;;;;;4878437;29;21029;-77
2022/04/29 11:29:13;;;;;;;;;;;;;;;;;;4879169;29;20500;-77
2022/04/29 11:31:40;;;;;;;16.55;5.78;;;;;;;;;;4892636;29;20011;-76
2022/04/29 11:34:16;;;;;;;8.43;5.03;;;;;;;;;;4892713;29;20040;-76
2022/04/29 11:36:43;;;;;;;5.82;4.60;;;;;;;;;;4878194;29;20036;-77
2022/04/29 11:39:14;;;;;;;5.05;4.03;;;;;;;;;;4892708;29;20339;-76
2022/04/29 11:41:52;;;;;;;10.82;7.53;;;;;;;;;;4892829;29;20531;-76
2022/04/29 11:44:22;;;;;;;8.30;5.20;;;;;;;;;;4878562;29;20499;-77
2022/04/29 11:46:51;;;;;;;5.22;4.28;;;;;;;;;;4878373;29;20509;-77
2022/04/29 11:49:27;;;;;;;6.43;4.00;;;;;;;;;;4878391;29;20557;-76
2022/04/29 11:51:53;;;;;;;6.10;3.90;;;;;;;;;;4892729;29;20044;-76
2022/04/29 11:54:19;;;;;;;7.75;3.42;;;;;;;;;;4878029;29;20064;-77
2022/04/29 11:56:45;;;;;;;5.45;4.15;;;;;;;;;;4877954;29;20036;-77
2022/04/29 11:59:12;;;;;;;5.60;4.47;;;;;;;;;;4878172;29;20044;-77
2022/04/29 12:01:40;;;;;;;4.95;4.13;;;;;;;;;;4878465;29;20025;-77
2022/04/29 12:04:06;;;;;;;9.02;4.90;;;;;;;;;;4877989;29;20052;-77
2022/04/29 12:06:32;;;;;;;6.13;4.13;;;;;;;;;;4877648;29;20115;-78
2022/04/29 12:08:58;;;;;;;5.90;4.65;;;;;;;;;;4878275;29;20524;-77
2022/04/29 12:11:31;;;;;;;5.75;4.72;;;;;;;;;;4891595;29;20867;-77
2022/04/29 12:14:14;;;;;;;16.83;5.88;;;;;;;;;;4878159;29;20036;-76
2022/04/29 12:16:44;;;;;;;6.00;4.18;;;;;;;;;;4878088;29;20415;-77
2022/04/29 12:19:16;;;;;;;10.13;6.40;;;;;;;;;;4877625;29;20120;-77
2022/04/29 12:21:52;;;;;;;7.07;5.30;;;;;;;;;;4878043;29;20028;-77
2022/04/29 12:24:18;;;;;;;7.05;5.70;;;;;;;;;;4877917;29;20027;-76
2022/04/29 12:27:04;;;;;;;7.53;5.22;;;;;;;;;;4877502;29;20496;-77
2022/04/29 12:29:31;;;;;;;5.35;3.65;;;;;;;;;;4877695;29;20045;-75
2022/04/29 12:34:48;;;;;;;4.65;3.67;;;;;;;;;;4877842;29;20409;-77
2022/04/29 12:37:14;;;;;;;5.72;4.30;;;;;;;;;;4878159;29;20073;-77
2022/04/29 12:39:44;;;;;;;6.32;4.82;;;;;;;;;;4878160;29;20025;-77
2022/04/29 12:42:11;;;;;;;5.18;4.00;;;;;;;;;;4877629;29;20416;-77
2022/04/29 12:45:11;;;;;;;4.78;3.83;;;;;;;;;;4877585;29;20021;-76
2022/04/29 12:47:41;;;;;;;3.17;2.10;;;;;;;;;;4877826;29;20118;-77
2022/04/29 12:50:26;;;;;;;4.55;3.10;;;;;;;;;;4876538;29;20469;-76
2022/04/29 12:53:00;;;;;;;6.85;3.80;;;;;;;;;;4890978;29;20433;-77
2022/04/29 12:55:27;;;;;;;4.57;2.78;;;;;;;;;;4877123;29;20312;-76
2022/04/29 12:58:02;;;;;;;5.35;3.05;;;;;;;;;;4876899;29;20104;-75
2022/04/29 13:00:28;;;;;;;3.25;2.80;;;;;;;;;;4891390;29;20040;-77
2022/04/29 13:02:59;;;;;;;5.32;3.53;;;;;;;;;;4877055;29;20053;-77
2022/04/29 13:05:25;;;;;;;3.83;3.15;;;;;;;;;;4877246;29;20481;-77
2022/04/29 13:07:51;;;;;;;6.80;2.92;;;;;;;;;;4893704;29;20487;-78
2022/04/29 13:10:18;;;;;;;4.05;3.30;;;;;;;;;;4880879;29;20493;-78
2022/04/29 13:12:45;;;;;;;4.53;3.28;;;;;;;;;;4881609;29;20028;-78
2022/04/29 13:15:14;;;;;;;5.22;4.07;;;;;;;;;;4881320;29;20026;-79
2022/04/29 13:17:40;;;;;;;6.63;3.92;;;;;;;;;;4880892;29;20031;-77
2022/04/29 13:20:08;;;;;;;5.45;3.33;;;;;;;;;;4880522;29;20029;-77
2022/04/29 13:22:35;;;;;;;2.92;2.28;;;;;;;;;;4880478;29;20021;-78
2022/04/29 13:25:01;;;;;;;2.90;2.17;;;;;;;;;;4880952;29;20033;-78
2022/04/29 13:27:29;;;;;;;3.25;2.53;;;;;;;;;;4880563;29;20068;-77
2022/04/29 13:29:55;;;;;;;6.63;3.30;;;;;;;;;;4894880;29;20047;-77
2022/04/29 13:32:21;;;;;;;9.02;6.28;;;;;;;;;;4880701;29;20129;-77
2022/04/29 13:34:50;;;;;;;5.65;3.80;;;;;;;;;;4880508;29;20032;-77
2022/04/29 13:37:17;;;;;;;5.38;3.65;;;;;;;;;;4894624;29;20022;-77
2022/04/29 13:39:43;;;;;;;8.68;5.82;;;;;;;;;;4893761;29;20082;-76
2022/04/29 13:42:10;;;;;;;4.35;2.58;;;;;;;;;;4894574;29;20041;-78
2022/04/29 13:44:36;;;;;;;4.57;2.75;;;;;;;;;;4894941;29;20086;-75
2022/04/29 13:47:03;;;;;;;3.33;2.28;;;;;;;;;;4880417;29;20029;-78
2022/04/29 13:49:29;;;;;;;9.25;3.80;;;;;;;;;;4894716;29;20507;-79
2022/04/29 13:51:55;;;;;;;5.53;3.70;;;;;;;;;;4880440;29;20382;-76
2022/04/29 13:54:21;;;;;;;6.47;3.95;;;;;;;;;;4894760;29;20412;-77
2022/04/29 13:56:47;;;;;;;5.93;4.25;;;;;;;;;;4894823;29;20036;-78
2022/04/29 13:59:13;;;;;;;4.75;3.45;;;;;;;;;;4894769;29;20124;-80
2022/04/29 14:01:40;;;;;;;7.20;4.95;;;;;;;;;;4894783;29;20025;-79
2022/04/29 14:04:06;;;;;;;8.15;4.90;;;;;;;;;;4879915;29;20100;-78
2022/04/29 14:06:33;;;;;;;9.50;4.65;;;;;;;;;;4879745;29;20027;-77
2022/04/29 14:08:59;;;;;;;5.93;3.85;;;;;;;;;;4880446;29;20033;-77
2022/04/29 14:11:25;;;;;;;5.57;3.75;;;;;;;;;;4879834;29;20048;-78
2022/04/29 14:13:51;;;;;;;6.70;3.88;;;;;;;;;;4880197;29;20021;-78
2022/04/29 14:16:17;;;;;;;7.40;3.88;;;;;;;;;;4879864;29;20081;-77
2022/04/29 14:18:43;;;;;;;9.93;5.00;;;;;;;;;;4893235;29;20036;-78
2022/04/29 14:21:09;;;;;;;10.25;5.22;;;;;;;;;;4879497;29;20025;-78
2022/04/29 14:23:35;;;;;;;7.65;4.80;;;;;;;;;;4880147;29;20025;-77
2022/04/29 14:26:01;;;;;;;6.28;3.85;;;;;;;;;;4893874;29;20025;-76
2022/04/29 14:28:27;;;;;;;10.18;5.93;;;;;;;;;;4895686;29;20393;-77
2022/04/29 14:30:53;;;;;;;7.22;4.72;;;;;;;;;;4882203;29;20105;-75
2022/04/29 14:33:19;;;;;;;6.43;4.18;;;;;;;;;;4880913;29;20024;-77
2022/04/29 14:35:45;;;;;;;17.30;4.90;;;;;;;;;;4893145;29;20407;-75
2022/04/29 14:38:12;;;;;;;8.02;5.97;;;;;;;;;;4876333;29;20487;-77
2022/04/29 14:40:38;;;;;;;8.32;4.70;;;;;;;;;;4881100;29;20056;-76
2022/04/29 14:43:04;;;;;;;8.48;5.47;;;;;;;;;;4880703;29;20025;-77
2022/04/29 14:45:32;;;;;;;7.88;5.35;;;;;;;;;;4894248;29;20120;-77
2022/04/29 14:47:58;;;;;;;7.05;4.30;;;;;;;;;;4879771;29;20021;-76
2022/04/29 14:50:24;;;;;;;5.30;3.70;;;;;;;;;;4879605;29;20389;-79
2022/04/29 14:52:50;;;;;;;9.65;5.15;;;;;;;;;;4893750;29;20056;-76
2022/04/29 14:55:17;;;;;;;7.80;5.93;;;;;;;;;;4879497;29;20021;-75
2022/04/29 14:57:43;;;;;;;8.18;5.50;;;;;;;;;;4893668;29;20028;-77
2022/04/29 15:00:10;;;;;;;12.23;7.68;;;;;;;;;;4879042;29;20025;-76
2022/04/29 15:02:36;;;;;;;10.85;7.45;;;;;;;;;;4879541;29;20112;-77
2022/04/29 15:05:02;;;;;;;8.07;5.10;;;;;;;;;;4893459;29;20591;-78
2022/04/29 15:07:30;;;;;;;9.07;6.13;;;;;;;;;;4879216;29;20068;-76